createdAt,value
2019-02-02T00:00:13.525Z,0.00
2019-02-02T00:01:13.499Z,0.00
2019-02-02T00:02:13.497Z,0.00
2019-02-02T00:03:13.482Z,0.00
2019-02-02T00:04:13.460Z,0.00
2019-02-02T00:05:13.472Z,0.00
2019-02-02T00:06:13.438Z,0.00
2019-02-02T00:07:13.427Z,0.00
2019-02-02T00:08:13.415Z,0.00
2019-02-02T00:09:13.405Z,0.00
2019-02-02T00:10:13.415Z,0.00
2019-02-02T00:11:13.382Z,0.00
2019-02-02T00:12:13.370Z,0.00
2019-02-02T00:13:13.364Z,0.00
2019-02-02T00:14:13.351Z,0.00
2019-02-02T00:15:13.358Z,0.00
2019-02-02T00:16:13.326Z,0.00
2019-02-02T00:17:13.314Z,0.00
2019-02-02T00:18:13.303Z,0.00
2019-02-02T00:19:13.300Z,0.00
2019-02-02T00:20:13.307Z,0.00
2019-02-02T00:21:13.279Z,0.00
2019-02-02T00:22:13.274Z,0.00
2019-02-02T00:23:13.251Z,0.00
2019-02-02T00:24:13.236Z,0.00
2019-02-02T00:25:13.249Z,0.00
2019-02-02T00:26:13.216Z,0.00
2019-02-02T00:27:13.203Z,0.00
2019-02-02T00:28:13.193Z,0.00
2019-02-02T00:29:13.182Z,0.00
2019-02-02T00:30:13.193Z,0.00
2019-02-02T00:31:13.195Z,0.00
2019-02-02T00:32:13.148Z,0.00
2019-02-02T00:33:13.153Z,0.00
2019-02-02T00:34:13.125Z,0.00
2019-02-02T00:35:13.136Z,0.00
2019-02-02T00:36:13.109Z,0.00
2019-02-02T00:37:13.099Z,0.00
2019-02-02T00:38:13.083Z,0.00
2019-02-02T00:39:13.070Z,0.00
2019-02-02T00:40:13.082Z,0.00
2019-02-02T00:41:13.052Z,0.00
2019-02-02T00:42:13.043Z,0.00
2019-02-02T00:43:13.030Z,0.00
2019-02-02T00:44:13.013Z,0.00
2019-02-02T00:45:13.038Z,0.00
2019-02-02T00:46:12.992Z,0.00
2019-02-02T00:47:12.982Z,0.00
2019-02-02T00:48:12.973Z,0.00
2019-02-02T00:49:12.959Z,0.00
2019-02-02T00:50:12.969Z,0.00
2019-02-02T00:51:12.937Z,0.00
2019-02-02T00:52:12.925Z,0.00
2019-02-02T00:53:12.916Z,0.00
2019-02-02T00:54:12.903Z,0.00
2019-02-02T00:55:13.144Z,0.00
2019-02-02T00:56:12.880Z,0.00
2019-02-02T00:57:12.870Z,0.00
2019-02-02T00:58:12.859Z,0.00
2019-02-02T00:59:12.849Z,0.00
2019-02-02T01:00:12.890Z,0.00
2019-02-02T01:01:12.828Z,0.00
2019-02-02T01:02:12.869Z,0.00
2019-02-02T01:03:12.802Z,0.00
2019-02-02T01:04:12.809Z,0.00
2019-02-02T01:05:12.809Z,0.00
2019-02-02T01:06:12.769Z,0.00
2019-02-02T01:07:12.758Z,0.00
2019-02-02T01:08:12.758Z,0.00
2019-02-02T01:09:12.735Z,0.00
2019-02-02T01:10:12.725Z,0.00
2019-02-02T01:11:12.736Z,0.00
2019-02-02T01:12:12.762Z,0.00
2019-02-02T01:13:12.695Z,0.00
2019-02-02T01:14:12.685Z,0.00
2019-02-02T01:15:12.671Z,0.00
2019-02-02T01:16:12.682Z,0.00
2019-02-02T01:17:12.650Z,0.00
2019-02-02T01:18:12.638Z,0.00
2019-02-02T01:19:12.624Z,0.00
2019-02-02T01:20:12.613Z,0.00
2019-02-02T01:21:12.629Z,0.00
2019-02-02T01:22:12.627Z,0.00
2019-02-02T01:23:12.584Z,0.00
2019-02-02T01:24:12.577Z,0.00
2019-02-02T01:25:12.559Z,0.00
2019-02-02T01:26:12.568Z,0.00
2019-02-02T01:27:12.536Z,0.00
2019-02-02T01:28:12.526Z,0.00
2019-02-02T01:29:12.550Z,0.00
2019-02-02T01:30:12.503Z,0.00
2019-02-02T01:31:12.512Z,0.00
2019-02-02T01:32:13.991Z,0.00
2019-02-02T01:33:12.474Z,0.00
2019-02-02T01:34:12.460Z,0.00
2019-02-02T01:35:12.446Z,0.00
2019-02-02T01:36:12.456Z,0.00
2019-02-02T01:37:12.435Z,0.00
2019-02-02T01:38:12.416Z,0.00
2019-02-02T01:39:12.401Z,0.00
2019-02-02T01:40:12.391Z,0.00
2019-02-02T01:41:12.410Z,0.00
2019-02-02T01:42:12.371Z,0.00
2019-02-02T01:43:12.357Z,0.00
2019-02-02T01:44:12.345Z,0.00
2019-02-02T01:45:12.335Z,0.00
2019-02-02T01:46:12.345Z,0.00
2019-02-02T01:47:12.311Z,0.00
2019-02-02T01:48:12.301Z,0.00
2019-02-02T01:49:12.299Z,0.00
2019-02-02T01:50:12.278Z,0.00
2019-02-02T01:51:12.291Z,0.00
2019-02-02T01:52:12.256Z,0.00
2019-02-02T01:53:20.933Z,0.00
2019-02-02T01:54:12.239Z,0.00
2019-02-02T01:55:12.222Z,0.00
2019-02-02T01:56:12.233Z,0.00
2019-02-02T01:57:12.200Z,0.00
2019-02-02T01:58:16.793Z,0.00
2019-02-02T01:59:12.180Z,0.00
2019-02-02T02:00:12.185Z,0.00
2019-02-02T02:01:12.182Z,0.00
2019-02-02T02:02:12.145Z,0.00
2019-02-02T02:03:12.135Z,0.00
2019-02-02T02:04:12.122Z,0.00
2019-02-02T02:05:12.110Z,0.00
2019-02-02T02:06:12.126Z,0.00
2019-02-02T02:07:12.088Z,0.00
2019-02-02T02:08:12.078Z,0.00
2019-02-02T02:09:12.068Z,0.00
2019-02-02T02:10:12.054Z,0.00
2019-02-02T02:11:12.065Z,0.00
2019-02-02T02:12:12.033Z,0.00
2019-02-02T02:13:12.023Z,0.00
2019-02-02T02:14:12.010Z,0.00
2019-02-02T02:15:12.000Z,0.00
2019-02-02T02:16:12.011Z,0.00
2019-02-02T02:17:11.989Z,0.00
2019-02-02T02:18:11.987Z,0.00
2019-02-02T02:19:11.955Z,0.00
2019-02-02T02:20:11.953Z,0.00
2019-02-02T02:21:11.954Z,0.00
2019-02-02T02:22:11.920Z,0.00
2019-02-02T02:23:11.912Z,0.00
2019-02-02T02:24:11.899Z,0.00
2019-02-02T02:25:11.886Z,0.00
2019-02-02T02:26:11.906Z,0.00
2019-02-02T02:27:11.864Z,0.00
2019-02-02T02:28:11.854Z,0.00
2019-02-02T02:29:11.842Z,0.00
2019-02-02T02:30:11.832Z,0.00
2019-02-02T02:31:11.843Z,0.00
2019-02-02T02:32:11.811Z,0.00
2019-02-02T02:33:11.798Z,0.00
2019-02-02T02:34:11.788Z,0.00
2019-02-02T02:35:11.792Z,0.00
2019-02-02T02:36:11.798Z,0.00
2019-02-02T02:37:11.769Z,0.00
2019-02-02T02:38:11.743Z,0.00
2019-02-02T02:39:11.745Z,0.00
2019-02-02T02:40:11.720Z,0.00
2019-02-02T02:41:11.729Z,0.00
2019-02-02T02:42:11.701Z,0.00
2019-02-02T02:43:11.692Z,0.00
2019-02-02T02:44:11.676Z,0.00
2019-02-02T02:45:11.664Z,0.00
2019-02-02T02:46:11.945Z,0.00
2019-02-02T02:47:11.643Z,0.00
2019-02-02T02:48:11.631Z,0.00
2019-02-02T02:49:11.623Z,0.00
2019-02-02T02:50:11.613Z,0.00
2019-02-02T02:51:11.597Z,0.00
2019-02-02T02:52:11.616Z,0.00
2019-02-02T02:53:11.586Z,0.00
2019-02-02T02:54:11.563Z,0.00
2019-02-02T02:55:11.553Z,0.00
2019-02-02T02:56:11.547Z,0.00
2019-02-02T02:57:11.555Z,0.00
2019-02-02T02:58:11.519Z,0.00
2019-02-02T02:59:11.522Z,0.00
2019-02-02T03:00:11.499Z,0.00
2019-02-02T03:02:02.016Z,0.00
2019-02-02T03:03:11.621Z,0.00
2019-02-02T03:04:01.980Z,0.00
2019-02-02T03:05:02.019Z,0.00
2019-02-02T03:06:01.951Z,0.00
2019-02-02T03:07:01.965Z,0.00
2019-02-02T03:08:01.928Z,0.00
2019-02-02T03:09:01.917Z,0.00
2019-02-02T03:10:01.907Z,0.00
2019-02-02T03:11:01.895Z,0.00
2019-02-02T03:12:01.904Z,0.00
2019-02-02T03:13:01.873Z,0.00
2019-02-02T03:14:01.866Z,0.00
2019-02-02T03:15:01.855Z,0.00
2019-02-02T03:16:01.839Z,0.00
2019-02-02T03:17:01.852Z,0.00
2019-02-02T03:18:01.819Z,0.00
2019-02-02T03:19:01.805Z,0.00
2019-02-02T03:20:01.802Z,0.00
2019-02-02T03:21:01.783Z,0.00
2019-02-02T03:22:01.797Z,0.00
2019-02-02T03:23:01.763Z,0.00
2019-02-02T03:24:01.755Z,0.00
2019-02-02T03:25:01.742Z,0.00
2019-02-02T03:26:01.763Z,0.00
2019-02-02T03:27:01.742Z,0.00
2019-02-02T03:28:01.707Z,0.00
2019-02-02T03:29:01.696Z,0.00
2019-02-02T03:30:01.685Z,0.00
2019-02-02T03:31:01.697Z,0.00
2019-02-02T03:32:01.686Z,0.00
2019-02-02T03:33:01.653Z,0.00
2019-02-02T03:34:01.642Z,0.00
2019-02-02T03:35:01.655Z,0.00
2019-02-02T03:36:01.620Z,0.00
2019-02-02T03:37:01.634Z,0.00
2019-02-02T03:38:01.596Z,0.00
2019-02-02T03:39:01.587Z,0.00
2019-02-02T03:40:01.575Z,0.00
2019-02-02T03:41:01.564Z,0.00
2019-02-02T03:42:01.575Z,0.00
2019-02-02T03:43:01.544Z,0.00
2019-02-02T03:44:01.533Z,0.00
2019-02-02T03:45:01.524Z,0.00
2019-02-02T03:46:01.508Z,0.00
2019-02-02T03:47:01.520Z,0.00
2019-02-02T03:48:01.523Z,0.00
2019-02-02T03:49:01.481Z,0.00
2019-02-02T03:50:01.475Z,0.00
2019-02-02T03:51:01.452Z,0.00
2019-02-02T03:52:01.464Z,0.00
2019-02-02T03:53:01.435Z,0.00
2019-02-02T03:54:08.847Z,0.00
2019-02-02T03:55:01.439Z,0.00
2019-02-02T03:56:01.400Z,0.00
2019-02-02T03:57:01.409Z,0.00
2019-02-02T03:58:01.379Z,0.00
2019-02-02T03:59:06.862Z,0.00
2019-02-02T04:00:02.356Z,0.00
2019-02-02T04:01:01.347Z,0.00
2019-02-02T04:02:01.363Z,0.00
2019-02-02T04:03:01.320Z,0.00
2019-02-02T04:04:01.313Z,0.00
2019-02-02T04:05:01.303Z,0.00
2019-02-02T04:06:01.288Z,0.00
2019-02-02T04:07:01.283Z,0.00
2019-02-02T04:08:01.301Z,0.00
2019-02-02T04:09:01.257Z,0.00
2019-02-02T04:10:01.244Z,0.00
2019-02-02T04:11:01.231Z,0.00
2019-02-02T04:12:01.224Z,0.00
2019-02-02T04:13:01.232Z,0.00
2019-02-02T04:14:01.199Z,0.00
2019-02-02T04:15:01.193Z,0.00
2019-02-02T04:16:01.177Z,0.00
2019-02-02T04:17:01.170Z,0.00
2019-02-02T04:18:01.205Z,0.00
2019-02-02T04:19:01.152Z,0.00
2019-02-02T04:20:01.132Z,0.00
2019-02-02T04:21:01.121Z,0.00
2019-02-02T04:22:01.113Z,0.00
2019-02-02T04:23:01.127Z,0.00
2019-02-02T04:24:01.089Z,0.00
2019-02-02T04:25:01.076Z,0.00
2019-02-02T04:26:01.073Z,0.00
2019-02-02T04:27:01.055Z,0.00
2019-02-02T04:28:01.070Z,0.00
2019-02-02T04:29:01.037Z,0.00
2019-02-02T04:30:01.034Z,0.00
2019-02-02T04:31:01.010Z,0.00
2019-02-02T04:32:01.001Z,0.00
2019-02-02T04:33:01.018Z,0.00
2019-02-02T04:34:00.980Z,0.00
2019-02-02T04:35:00.966Z,0.00
2019-02-02T04:36:00.966Z,0.00
2019-02-02T04:37:00.945Z,0.00
2019-02-02T04:38:00.953Z,0.00
2019-02-02T04:39:00.924Z,0.00
2019-02-02T04:40:00.911Z,0.00
2019-02-02T04:41:00.908Z,0.00
2019-02-02T04:42:00.891Z,0.00
2019-02-02T04:43:01.899Z,0.00
2019-02-02T04:44:00.868Z,0.00
2019-02-02T04:45:00.855Z,0.00
2019-02-02T04:46:00.844Z,0.00
2019-02-02T04:47:00.834Z,0.00
2019-02-02T04:48:00.847Z,0.00
2019-02-02T04:49:00.811Z,0.00
2019-02-02T04:50:00.802Z,0.00
2019-02-02T04:51:00.795Z,0.00
2019-02-02T04:52:00.791Z,0.00
2019-02-02T04:53:00.789Z,0.00
2019-02-02T04:54:00.755Z,0.00
2019-02-02T04:55:00.749Z,0.00
2019-02-02T04:56:00.735Z,0.00
2019-02-02T04:57:00.723Z,0.00
2019-02-02T04:58:00.734Z,0.00
2019-02-02T04:59:00.708Z,0.00
2019-02-02T05:00:00.690Z,0.00
2019-02-02T05:01:00.688Z,0.00
2019-02-02T05:02:00.670Z,0.00
2019-02-02T05:03:00.680Z,0.00
2019-02-02T05:04:00.645Z,0.00
2019-02-02T05:05:00.679Z,0.00
2019-02-02T05:06:00.627Z,0.00
2019-02-02T05:07:00.613Z,0.00
2019-02-02T05:08:00.627Z,0.00
2019-02-02T05:09:00.590Z,0.00
2019-02-02T05:10:00.584Z,0.00
2019-02-02T05:11:00.572Z,0.00
2019-02-02T05:12:00.561Z,0.00
2019-02-02T05:13:00.566Z,0.00
2019-02-02T05:14:00.539Z,0.00
2019-02-02T05:15:00.526Z,0.00
2019-02-02T05:16:00.579Z,0.00
2019-02-02T05:17:00.502Z,0.00
2019-02-02T05:18:00.496Z,0.00
2019-02-02T05:19:00.522Z,0.00
2019-02-02T05:20:00.477Z,0.00
2019-02-02T05:21:00.460Z,0.00
2019-02-02T05:22:00.450Z,0.00
2019-02-02T05:23:00.440Z,0.00
2019-02-02T05:24:00.455Z,0.00
2019-02-02T05:25:00.414Z,0.00
2019-02-02T05:26:00.407Z,0.00
2019-02-02T05:27:00.416Z,0.00
2019-02-02T05:28:00.383Z,0.00
2019-02-02T05:29:00.398Z,0.00
2019-02-02T05:30:00.534Z,0.00
2019-02-02T05:31:00.378Z,0.00
2019-02-02T05:32:00.341Z,0.00
2019-02-02T05:33:00.327Z,0.00
2019-02-02T05:34:00.345Z,0.00
2019-02-02T05:35:00.313Z,0.00
2019-02-02T05:36:00.293Z,0.00
2019-02-02T05:37:00.281Z,0.00
2019-02-02T05:38:00.270Z,0.00
2019-02-02T05:39:00.284Z,0.00
2019-02-02T05:40:00.349Z,0.00
2019-02-02T05:41:00.239Z,0.00
2019-02-02T05:42:00.227Z,0.00
2019-02-02T05:43:00.215Z,0.00
2019-02-02T05:44:00.233Z,0.00
2019-02-02T05:45:00.218Z,0.00
2019-02-02T05:46:00.188Z,0.00
2019-02-02T05:47:00.175Z,0.00
2019-02-02T05:48:00.161Z,0.00
2019-02-02T05:49:00.176Z,0.00
2019-02-02T05:50:00.321Z,0.00
2019-02-02T05:51:00.131Z,0.00
2019-02-02T05:52:00.119Z,0.00
2019-02-02T05:53:00.108Z,0.00
2019-02-02T05:54:00.116Z,0.00
2019-02-02T05:55:00.315Z,0.00
2019-02-02T05:56:00.077Z,0.00
2019-02-02T05:57:00.070Z,0.00
2019-02-02T05:58:00.050Z,0.00
2019-02-02T05:59:00.061Z,0.00
2019-02-02T06:00:00.036Z,0.00
2019-02-02T06:01:00.019Z,0.00
2019-02-02T06:02:00.010Z,0.00
2019-02-02T06:02:59.999Z,0.00
2019-02-02T06:04:00.006Z,0.00
2019-02-02T06:04:59.973Z,0.00
2019-02-02T06:05:59.966Z,0.00
2019-02-02T06:06:59.953Z,0.00
2019-02-02T06:07:59.941Z,0.00
2019-02-02T06:08:59.949Z,0.00
2019-02-02T06:09:59.917Z,0.00
2019-02-02T06:10:59.914Z,0.00
2019-02-02T06:11:59.896Z,0.00
2019-02-02T06:12:59.888Z,0.00
2019-02-02T06:13:59.903Z,0.00
2019-02-02T06:14:59.862Z,0.00
2019-02-02T06:15:59.852Z,0.00
2019-02-02T06:16:59.849Z,0.00
2019-02-02T06:17:59.830Z,0.00
2019-02-02T06:18:59.820Z,0.00
2019-02-02T06:19:59.833Z,0.00
2019-02-02T06:20:59.799Z,0.00
2019-02-02T06:21:59.789Z,0.00
2019-02-02T06:22:59.779Z,0.00
2019-02-02T06:23:59.815Z,0.00
2019-02-02T06:24:59.774Z,0.00
2019-02-02T06:25:59.749Z,0.00
2019-02-02T06:26:59.734Z,0.00
2019-02-02T06:27:59.725Z,0.00
2019-02-02T06:28:59.709Z,0.00
2019-02-02T06:30:04.388Z,0.00
2019-02-02T06:31:00.695Z,0.00
2019-02-02T06:32:10.976Z,0.00
2019-02-02T06:32:59.667Z,0.00
2019-02-02T06:33:59.664Z,0.00
2019-02-02T06:34:59.664Z,0.00
2019-02-02T06:35:59.632Z,0.00
2019-02-02T06:36:59.623Z,0.00
2019-02-02T06:37:59.609Z,0.00
2019-02-02T06:38:59.601Z,0.00
2019-02-02T06:39:59.612Z,0.00
2019-02-02T06:40:59.576Z,0.00
2019-02-02T06:41:59.570Z,0.00
2019-02-02T06:42:59.555Z,0.00
2019-02-02T06:43:59.554Z,0.00
2019-02-02T06:44:59.563Z,0.00
2019-02-02T06:45:59.526Z,0.00
2019-02-02T06:46:59.515Z,4.00
2019-02-02T06:47:59.498Z,4.00
2019-02-02T06:49:01.546Z,0.00
2019-02-02T06:49:59.508Z,4.00
2019-02-02T06:50:59.475Z,4.00
2019-02-02T06:51:59.455Z,4.00
2019-02-02T06:52:59.446Z,4.00
2019-02-02T06:53:59.434Z,8.00
2019-02-02T06:54:59.452Z,8.00
2019-02-02T06:55:59.412Z,8.00
2019-02-02T06:56:59.400Z,12.00
2019-02-02T06:57:59.390Z,12.00
2019-02-02T06:58:59.383Z,16.00
2019-02-02T06:59:59.390Z,12.00
2019-02-02T07:00:59.355Z,16.00
2019-02-02T07:01:59.347Z,20.00
2019-02-02T07:02:59.335Z,20.00
2019-02-02T07:03:59.321Z,20.00
2019-02-02T07:04:59.340Z,24.00
2019-02-02T07:05:59.309Z,24.00
2019-02-02T07:06:59.368Z,28.00
2019-02-02T07:07:59.277Z,28.00
2019-02-02T07:08:59.268Z,32.00
2019-02-02T07:09:59.285Z,32.00
2019-02-02T07:10:59.243Z,32.00
2019-02-02T07:11:59.234Z,40.00
2019-02-02T07:12:59.225Z,40.00
2019-02-02T07:13:59.211Z,40.00
2019-02-02T07:14:59.230Z,40.00
2019-02-02T07:15:59.189Z,40.00
2019-02-02T07:16:59.178Z,40.00
2019-02-02T07:17:59.199Z,44.00
2019-02-02T07:18:59.156Z,44.00
2019-02-02T07:19:59.145Z,44.00
2019-02-02T07:20:59.154Z,48.00
2019-02-02T07:21:59.122Z,48.00
2019-02-02T07:22:59.114Z,56.00
2019-02-02T07:23:59.101Z,56.00
2019-02-02T07:24:59.112Z,56.00
2019-02-02T07:25:59.099Z,60.00
2019-02-02T07:26:59.067Z,60.00
2019-02-02T07:27:59.055Z,68.00
2019-02-02T07:28:59.045Z,76.00
2019-02-02T07:29:59.037Z,84.00
2019-02-02T07:30:59.044Z,92.00
2019-02-02T07:31:59.012Z,100.00
2019-02-02T07:32:59.021Z,104.00
2019-02-02T07:33:58.994Z,108.00
2019-02-02T07:34:58.980Z,108.00
2019-02-02T07:35:58.988Z,116.00
2019-02-02T07:36:58.965Z,124.00
2019-02-02T07:37:58.947Z,128.00
2019-02-02T07:38:58.936Z,136.00
2019-02-02T07:39:58.926Z,148.00
2019-02-02T07:40:58.960Z,156.00
2019-02-02T07:41:58.916Z,164.00
2019-02-02T07:42:58.890Z,172.00
2019-02-02T07:43:58.883Z,184.00
2019-02-02T07:44:58.879Z,192.00
2019-02-02T07:45:58.880Z,204.00
2019-02-02T07:46:58.898Z,208.00
2019-02-02T07:47:59.121Z,212.00
2019-02-02T07:48:58.827Z,212.00
2019-02-02T07:50:08.245Z,220.00
2019-02-02T07:52:08.879Z,216.00
2019-02-02T07:53:08.846Z,216.00
2019-02-02T07:54:08.840Z,212.00
2019-02-02T07:55:08.822Z,212.00
2019-02-02T07:56:08.833Z,216.00
2019-02-02T07:57:08.800Z,224.00
2019-02-02T07:58:08.789Z,240.00
2019-02-02T07:59:08.781Z,256.00
2019-02-02T08:00:08.771Z,272.00
2019-02-02T08:01:08.800Z,284.00
2019-02-02T08:02:08.756Z,292.00
2019-02-02T08:03:08.735Z,300.00
2019-02-02T08:04:08.736Z,304.00
2019-02-02T08:05:08.731Z,316.00
2019-02-02T08:06:08.782Z,328.00
2019-02-02T08:07:08.694Z,340.00
2019-02-02T08:08:08.679Z,352.00
2019-02-02T08:09:08.671Z,364.00
2019-02-02T08:10:08.660Z,380.00
2019-02-02T08:11:08.668Z,384.00
2019-02-02T08:12:08.639Z,388.00
2019-02-02T08:13:17.426Z,380.00
2019-02-02T08:14:11.409Z,376.00
2019-02-02T08:15:08.602Z,376.00
2019-02-02T08:16:08.619Z,376.00
2019-02-02T08:17:08.581Z,384.00
2019-02-02T08:18:08.582Z,396.00
2019-02-02T08:19:17.149Z,408.00
2019-02-02T08:20:08.553Z,416.00
2019-02-02T08:21:08.540Z,432.00
2019-02-02T08:22:08.546Z,436.00
2019-02-02T08:23:08.515Z,440.00
2019-02-02T08:24:08.637Z,440.00
2019-02-02T08:25:08.494Z,436.00
2019-02-02T08:26:08.506Z,436.00
2019-02-02T08:27:08.503Z,444.00
2019-02-02T08:28:08.459Z,452.00
2019-02-02T08:29:08.472Z,468.00
2019-02-02T08:30:08.446Z,492.00
2019-02-02T08:31:08.424Z,516.00
2019-02-02T08:32:08.548Z,548.00
2019-02-02T08:33:18.224Z,572.00
2019-02-02T08:34:08.392Z,596.00
2019-02-02T08:35:08.391Z,616.00
2019-02-02T08:36:08.371Z,636.00
2019-02-02T08:37:08.386Z,648.00
2019-02-02T08:38:08.473Z,648.00
2019-02-02T08:39:08.341Z,652.00
2019-02-02T08:40:08.332Z,656.00
2019-02-02T08:41:08.314Z,668.00
2019-02-02T08:42:08.325Z,688.00
2019-02-02T08:43:08.295Z,720.00
2019-02-02T08:44:08.286Z,740.00
2019-02-02T08:45:08.292Z,760.00
2019-02-02T08:46:08.261Z,784.00
2019-02-02T08:47:08.270Z,812.00
2019-02-02T08:48:08.238Z,848.00
2019-02-02T08:49:08.254Z,900.00
2019-02-02T08:50:08.218Z,944.00
2019-02-02T08:51:08.207Z,1008.00
2019-02-02T08:52:08.218Z,1072.00
2019-02-02T08:53:08.241Z,1108.00
2019-02-02T08:54:08.266Z,1140.00
2019-02-02T08:55:08.161Z,1176.00
2019-02-02T08:56:08.157Z,1200.00
2019-02-02T08:57:08.337Z,1224.00
2019-02-02T08:58:08.141Z,1224.00
2019-02-02T08:59:08.118Z,1196.00
2019-02-02T09:00:17.946Z,1152.00
2019-02-02T09:01:08.096Z,1120.00
2019-02-02T09:02:08.237Z,1084.00
2019-02-02T09:03:08.072Z,1052.00
2019-02-02T09:04:08.201Z,1036.00
2019-02-02T09:05:08.160Z,1012.00
2019-02-02T09:06:08.040Z,1000.00
2019-02-02T09:07:08.026Z,976.00
2019-02-02T09:08:08.047Z,956.00
2019-02-02T09:09:08.005Z,944.00
2019-02-02T09:10:07.996Z,948.00
2019-02-02T09:11:07.985Z,964.00
2019-02-02T09:12:07.971Z,992.00
2019-02-02T09:13:08.096Z,1008.00
2019-02-02T09:14:07.956Z,1028.00
2019-02-02T09:15:07.968Z,1040.00
2019-02-02T09:16:07.942Z,1048.00
2019-02-02T09:17:07.916Z,1052.00
2019-02-02T09:18:16.599Z,1052.00
2019-02-02T09:19:07.894Z,1056.00
2019-02-02T09:20:07.884Z,1056.00
2019-02-02T09:21:07.889Z,1064.00
2019-02-02T09:22:07.863Z,1072.00
2019-02-02T09:23:07.888Z,1096.00
2019-02-02T09:24:07.841Z,1124.00
2019-02-02T09:25:07.849Z,1152.00
2019-02-02T09:26:07.820Z,1180.00
2019-02-02T09:27:07.805Z,1200.00
2019-02-02T09:28:07.817Z,1200.00
2019-02-02T09:29:16.324Z,1184.00
2019-02-02T09:30:07.859Z,1160.00
2019-02-02T09:31:15.578Z,1152.00
2019-02-02T09:32:07.754Z,1144.00
2019-02-02T09:33:07.790Z,1144.00
2019-02-02T09:34:07.734Z,1148.00
2019-02-02T09:35:07.717Z,1160.00
2019-02-02T09:36:07.705Z,1180.00
2019-02-02T09:38:00.613Z,1260.00
2019-02-02T09:39:09.427Z,1312.00
2019-02-02T09:40:00.575Z,1376.00
2019-02-02T09:41:00.564Z,1440.00
2019-02-02T09:42:00.553Z,1508.00
2019-02-02T09:43:00.542Z,1584.00
2019-02-02T09:44:00.556Z,1668.00
2019-02-02T09:45:00.526Z,1756.00
2019-02-02T09:46:00.513Z,1844.00
2019-02-02T09:47:00.507Z,1940.00
2019-02-02T09:48:00.488Z,2044.00
2019-02-02T09:49:00.527Z,2156.00
2019-02-02T09:50:00.512Z,2236.00
2019-02-02T09:51:00.459Z,2248.00
2019-02-02T09:52:00.453Z,2208.00
2019-02-02T09:53:00.450Z,2160.00
2019-02-02T09:54:00.468Z,2124.00
2019-02-02T09:55:00.413Z,2096.00
2019-02-02T09:56:00.402Z,2044.00
2019-02-02T09:57:00.387Z,1960.00
2019-02-02T09:58:09.884Z,1828.00
2019-02-02T09:59:10.083Z,1680.00
2019-02-02T10:00:00.360Z,1524.00
2019-02-02T10:01:00.345Z,1376.00
2019-02-02T10:02:00.334Z,1268.00
2019-02-02T10:03:00.337Z,1196.00
2019-02-02T10:04:00.336Z,1152.00
2019-02-02T10:05:08.611Z,1128.00
2019-02-02T10:06:00.292Z,1116.00
2019-02-02T10:07:00.287Z,1108.00
2019-02-02T10:08:00.272Z,1108.00
2019-02-02T10:09:00.284Z,1104.00
2019-02-02T10:10:00.409Z,1100.00
2019-02-02T10:11:00.236Z,1080.00
2019-02-02T10:12:00.228Z,1060.00
2019-02-02T10:13:00.216Z,1036.00
2019-02-02T10:14:00.245Z,1024.00
2019-02-02T10:15:00.228Z,1028.00
2019-02-02T10:16:00.180Z,1040.00
2019-02-02T10:17:00.181Z,1056.00
2019-02-02T10:18:00.160Z,1072.00
2019-02-02T10:19:00.167Z,1084.00
2019-02-02T10:20:00.313Z,1096.00
2019-02-02T10:21:04.150Z,1116.00
2019-02-02T10:22:00.117Z,1128.00
2019-02-02T10:23:00.103Z,1128.00
2019-02-02T10:24:00.143Z,1120.00
2019-02-02T10:25:00.085Z,1120.00
2019-02-02T10:26:00.070Z,1112.00
2019-02-02T10:27:00.059Z,1112.00
2019-02-02T10:28:00.049Z,1120.00
2019-02-02T10:29:00.066Z,1132.00
2019-02-02T10:30:00.031Z,1148.00
2019-02-02T10:31:00.019Z,1168.00
2019-02-02T10:32:00.005Z,1176.00
2019-02-02T10:32:59.995Z,1164.00
2019-02-02T10:34:00.005Z,1148.00
2019-02-02T10:34:59.972Z,1168.00
2019-02-02T10:35:59.985Z,1208.00
2019-02-02T10:36:59.964Z,1244.00
2019-02-02T10:37:59.945Z,1264.00
2019-02-02T10:38:59.950Z,1268.00
2019-02-02T10:39:59.946Z,1260.00
2019-02-02T10:40:59.909Z,1248.00
2019-02-02T10:41:59.926Z,1244.00
2019-02-02T10:42:59.883Z,1252.00
2019-02-02T10:43:59.873Z,1264.00
2019-02-02T10:44:59.881Z,1252.00
2019-02-02T10:45:59.892Z,1236.00
2019-02-02T10:46:59.882Z,1224.00
2019-02-02T10:47:59.840Z,1228.00
2019-02-02T10:48:59.822Z,1248.00
2019-02-02T10:49:59.827Z,1268.00
2019-02-02T10:50:59.830Z,1280.00
2019-02-02T10:51:59.827Z,1276.00
2019-02-02T10:52:59.778Z,1264.00
2019-02-02T10:53:59.901Z,1260.00
2019-02-02T10:54:59.853Z,1276.00
2019-02-02T10:55:59.783Z,1312.00
2019-02-02T10:56:59.733Z,1356.00
2019-02-02T10:57:59.719Z,1400.00
2019-02-02T10:58:59.711Z,1420.00
2019-02-02T10:59:59.729Z,1404.00
2019-02-02T11:00:59.686Z,1364.00
2019-02-02T11:01:59.701Z,1324.00
2019-02-02T11:02:59.673Z,1308.00
2019-02-02T11:03:59.658Z,1308.00
2019-02-02T11:04:59.759Z,1308.00
2019-02-02T11:05:59.648Z,1308.00
2019-02-02T11:06:59.640Z,1288.00
2019-02-02T11:07:59.632Z,1268.00
2019-02-02T11:08:59.721Z,1260.00
2019-02-02T11:09:59.665Z,1272.00
2019-02-02T11:10:59.680Z,1280.00
2019-02-02T11:11:59.598Z,1284.00
2019-02-02T11:12:59.624Z,1268.00
2019-02-02T11:14:08.969Z,1236.00
2019-02-02T11:14:59.585Z,1192.00
2019-02-02T11:15:59.573Z,1136.00
2019-02-02T11:16:59.544Z,1080.00
2019-02-02T11:17:59.595Z,1040.00
2019-02-02T11:18:59.492Z,1004.00
2019-02-02T11:19:59.596Z,980.00
2019-02-02T11:20:59.603Z,964.00
2019-02-02T11:21:59.567Z,956.00
2019-02-02T11:22:59.528Z,944.00
2019-02-02T11:23:59.435Z,936.00
2019-02-02T11:24:59.597Z,936.00
2019-02-02T11:25:59.571Z,940.00
2019-02-02T11:26:59.539Z,940.00
2019-02-02T11:27:59.432Z,940.00
2019-02-02T11:28:59.652Z,944.00
2019-02-02T11:29:59.464Z,948.00
2019-02-02T11:30:59.362Z,960.00
2019-02-02T11:32:09.651Z,964.00
2019-02-02T11:32:59.334Z,964.00
2019-02-02T11:33:59.324Z,948.00
2019-02-02T11:34:59.353Z,944.00
2019-02-02T11:35:59.301Z,952.00
2019-02-02T11:36:59.292Z,976.00
2019-02-02T11:37:59.282Z,1012.00
2019-02-02T11:38:59.735Z,1036.00
2019-02-02T11:39:59.281Z,1064.00
2019-02-02T11:40:59.251Z,1060.00
2019-02-02T11:41:59.236Z,1040.00
2019-02-02T11:42:59.231Z,1004.00
2019-02-02T11:44:07.704Z,948.00
2019-02-02T11:44:59.434Z,900.00
2019-02-02T11:45:59.193Z,864.00
2019-02-02T11:46:59.195Z,844.00
2019-02-02T11:47:59.170Z,852.00
2019-02-02T11:48:59.162Z,868.00
2019-02-02T11:49:59.171Z,896.00
2019-02-02T11:50:59.141Z,920.00
2019-02-02T11:51:59.154Z,932.00
2019-02-02T11:52:59.121Z,928.00
2019-02-02T11:53:59.106Z,900.00
2019-02-02T11:54:59.170Z,860.00
2019-02-02T11:55:59.083Z,824.00
2019-02-02T11:56:59.072Z,808.00
2019-02-02T11:57:59.068Z,800.00
2019-02-02T11:58:59.051Z,800.00
2019-02-02T11:59:59.064Z,800.00
2019-02-02T12:00:59.028Z,788.00
2019-02-02T12:01:59.017Z,768.00
2019-02-02T12:02:59.020Z,736.00
2019-02-02T12:03:59.004Z,704.00
2019-02-02T12:04:59.007Z,680.00
2019-02-02T12:05:58.994Z,664.00
2019-02-02T12:06:58.962Z,636.00
2019-02-02T12:07:58.955Z,608.00
2019-02-02T12:08:58.940Z,620.00
2019-02-02T12:09:58.929Z,632.00
2019-02-02T12:10:59.007Z,652.00
2019-02-02T12:11:58.910Z,664.00
2019-02-02T12:12:58.900Z,660.00
2019-02-02T12:13:58.886Z,648.00
2019-02-02T12:14:58.913Z,644.00
2019-02-02T12:15:58.888Z,632.00
2019-02-02T12:16:58.873Z,624.00
2019-02-02T12:17:58.923Z,628.00
2019-02-02T12:18:58.829Z,628.00
2019-02-02T12:19:58.825Z,624.00
2019-02-02T12:20:58.829Z,624.00
2019-02-02T12:21:58.798Z,628.00
2019-02-02T12:22:58.787Z,644.00
2019-02-02T12:23:58.779Z,660.00
2019-02-02T12:25:01.719Z,680.00
2019-02-02T12:25:58.778Z,704.00
2019-02-02T12:26:58.742Z,724.00
2019-02-02T12:27:58.768Z,772.00
2019-02-02T12:29:08.077Z,828.00
2019-02-02T12:29:58.771Z,884.00
2019-02-02T12:30:58.721Z,948.00
2019-02-02T12:31:58.695Z,1012.00
2019-02-02T12:32:58.683Z,1072.00
2019-02-02T12:33:58.664Z,1104.00
2019-02-02T12:34:58.658Z,1100.00
2019-02-02T12:35:58.664Z,1080.00
2019-02-02T12:36:58.632Z,1076.00
2019-02-02T12:37:58.620Z,1104.00
2019-02-02T12:38:58.614Z,1176.00
2019-02-02T12:39:58.602Z,1276.00
2019-02-02T12:40:59.840Z,1384.00
2019-02-02T12:41:58.580Z,1460.00
2019-02-02T12:42:58.569Z,1488.00
2019-02-02T12:43:58.556Z,1464.00
2019-02-02T12:44:58.625Z,1424.00
2019-02-02T12:45:59.012Z,1380.00
2019-02-02T12:46:58.528Z,1324.00
2019-02-02T12:47:58.511Z,1260.00
2019-02-02T12:48:58.503Z,1192.00
2019-02-02T12:49:58.495Z,1116.00
2019-02-02T12:50:58.500Z,1036.00
2019-02-02T12:51:58.470Z,976.00
2019-02-02T12:52:58.456Z,916.00